Time;durP1;ratioP1;P1;durP2;ratioP2;P2;SDS_P1;SDS_P2;PMS_P1;PMS_P2;Temp;Humidity;BMP_temperature;BMP_pressure;BME280_temperature;BME280_humidity;BME280_pressure;Samples;Min_cycle;Max_cycle;Signal;HPM_P1;HPM_P2
2022/05/18 00:00:13;;;;;;;;;;;22.40;55.60;;;;;;4992985;28;81874;-48
2022/05/18 00:02:41;;;;;;;;;;;22.40;55.60;;;;;;4992367;28;84258;-48
2022/05/18 00:05:07;;;;;;;;;;;22.40;55.50;;;;;;4992666;28;81947;-48
2022/05/18 00:07:33;;;;;;;;;;;22.40;55.60;;;;;;4992585;28;82095;-48
2022/05/18 00:09:58;;;;;;;;;;;22.30;55.60;;;;;;4991650;28;84909;-48
2022/05/18 00:12:24;;;;;;;;;;;22.30;55.60;;;;;;4992629;28;81807;-48
2022/05/18 00:14:50;;;;;;;;;;;22.30;55.70;;;;;;4992799;28;82107;-48
2022/05/18 00:17:16;;;;;;;;;;;22.30;55.70;;;;;;4992525;28;82444;-48
2022/05/18 00:19:41;;;;;;;;;;;22.30;55.60;;;;;;4995537;28;81871;-48
2022/05/18 00:22:07;;;;;;;;;;;22.30;55.60;;;;;;4991792;28;81803;-48
2022/05/18 00:24:33;;;;;;;;;;;22.30;55.60;;;;;;4992332;28;81875;-48
2022/05/18 00:26:58;;;;;;;;;;;22.20;55.70;;;;;;4993166;28;81789;-48
2022/05/18 00:29:24;;;;;;;;;;;22.20;55.60;;;;;;4992020;28;83558;-48
2022/05/18 00:31:49;;;;;;;;;;;22.20;55.70;;;;;;4992273;28;82110;-48
2022/05/18 00:34:18;;;;;;;;;;;22.20;55.70;;;;;;4991651;28;82822;-48
2022/05/18 00:36:44;;;;;;;;;;;22.20;55.70;;;;;;4991996;28;83435;-48
2022/05/18 00:39:10;;;;;;;;;;;22.20;55.70;;;;;;4992241;28;81870;-48
2022/05/18 00:41:37;;;;;;;;;;;22.10;55.70;;;;;;4994726;28;82052;-48
2022/05/18 00:44:03;;;;;;;;;;;22.10;55.70;;;;;;4992114;28;81816;-48
2022/05/18 00:46:29;;;;;;;;;;;22.20;55.70;;;;;;4992104;28;83283;-48
2022/05/18 00:48:55;;;;;;;;;;;22.10;55.70;;;;;;4988203;28;86766;-48
2022/05/18 00:51:33;;;;;;;;;;;22.10;55.70;;;;;;4989212;28;86195;-48
2022/05/18 00:53:59;;;;;;;;;;;22.00;55.60;;;;;;4988851;28;86881;-48
2022/05/18 00:56:33;;;;;;;;;;;22.10;55.70;;;;;;4988265;28;86995;-48
2022/05/18 00:59:05;;;;;;;;;;;22.10;55.70;;;;;;4987110;28;87765;-48
2022/05/18 01:01:31;;;;;;;;;;;22.00;55.80;;;;;;4988481;28;88870;-48
2022/05/18 01:03:57;;;;;;;;;;;22.00;55.80;;;;;;4990705;28;88497;-48
2022/05/18 01:06:41;;;;;;;;;;;22.00;55.90;;;;;;4988450;28;88182;-48
2022/05/18 01:09:09;;;;;;;;;;;21.90;55.40;;;;;;4988140;28;87267;-48
2022/05/18 01:11:39;;;;;;;;;;;21.90;55.90;;;;;;4988248;28;86906;-47
2022/05/18 01:14:09;;;;;;;;;;;21.90;55.90;;;;;;4988376;28;87087;-48
2022/05/18 01:16:35;;;;;;;;;;;21.90;55.90;;;;;;4988170;28;87888;-48
2022/05/18 01:19:02;;;;;;;;;;;21.90;56.00;;;;;;4988366;28;86892;-48
2022/05/18 01:21:31;;;;;;;;;;;21.90;55.90;;;;;;4988076;28;87260;-48
2022/05/18 01:24:04;;;;;;;;;;;21.90;56.00;;;;;;4986351;28;88868;-48
2022/05/18 01:26:42;;;;;;;;;;;21.80;56.10;;;;;;4990897;28;86870;-48
2022/05/18 01:29:09;;;;;;;;;;;21.80;56.10;;;;;;4987596;28;88423;-48
2022/05/18 01:31:46;;;;;;;;;;;21.70;56.00;;;;;;4987928;28;86854;-48
2022/05/18 01:34:12;;;;;;;;;;;21.70;56.00;;;;;;4970415;28;89790;-49
2022/05/18 01:36:37;;;;;;;;;;;21.80;56.00;;;;;;4987116;28;87683;-49
2022/05/18 01:39:05;;;;;;;;;;;21.70;56.00;;;;;;4987331;28;86874;-49
2022/05/18 01:41:34;;;;;;;;;;;21.70;56.10;;;;;;4987746;28;87654;-48
2022/05/18 01:44:00;;;;;;;;;;;21.70;56.10;;;;;;4986243;28;86979;-49
2022/05/18 01:46:27;;;;;;;;;;;21.60;56.10;;;;;;4987125;28;86846;-48
2022/05/18 01:48:53;;;;;;;;;;;21.60;56.10;;;;;;4988875;28;88005;-48
2022/05/18 01:51:43;;;;;;;;;;;21.60;56.10;;;;;;4987428;28;86820;-48
2022/05/18 01:54:09;;;;;;;;;;;21.60;56.10;;;;;;4974510;28;87955;-48
2022/05/18 01:56:34;;;;;;;;;;;21.50;56.10;;;;;;4986687;28;86867;-48
2022/05/18 01:59:00;;;;;;;;;;;21.50;56.10;;;;;;4987202;28;86901;-49
2022/05/18 02:01:26;;;;;;;;;;;21.50;56.20;;;;;;4986826;28;88131;-49
2022/05/18 02:03:51;;;;;;;;;;;21.50;56.20;;;;;;4986505;28;87915;-50
2022/05/18 02:06:17;;;;;;;;;;;21.50;56.20;;;;;;4987269;28;86127;-49
2022/05/18 02:08:43;;;;;;;;;;;21.50;56.20;;;;;;4989883;28;87720;-48
2022/05/18 02:11:16;;;;;;;;;;;21.50;56.20;;;;;;4987323;28;86887;-48
2022/05/18 02:13:42;;;;;;;;;;;21.40;56.10;;;;;;4986690;28;87907;-48
2022/05/18 02:16:08;;;;;;;;;;;21.40;56.10;;;;;;4986852;28;86896;-48
2022/05/18 02:18:34;;;;;;;;;;;21.40;56.70;;;;;;4987090;28;86770;-48
2022/05/18 02:21:03;;;;;;;;;;;21.40;56.10;;;;;;4987644;28;87114;-47
2022/05/18 02:23:29;;;;;;;;;;;21.40;56.20;;;;;;4986771;28;88751;-48
2022/05/18 02:25:54;;;;;;;;;;;21.30;56.20;;;;;;4987412;28;86976;-48
2022/05/18 02:28:20;;;;;;;;;;;21.30;56.30;;;;;;4986325;28;86768;-48
2022/05/18 02:30:46;;;;;;;;;;;21.30;56.20;;;;;;4990012;28;87836;-48
2022/05/18 02:33:11;;;;;;;;;;;21.30;56.20;;;;;;4987189;28;86857;-48
2022/05/18 02:35:40;;;;;;;;;;;21.30;56.30;;;;;;4986905;28;86873;-48
2022/05/18 02:38:07;;;;;;;;;;;21.30;56.20;;;;;;4986341;28;87776;-48
2022/05/18 02:40:33;;;;;;;;;;;21.30;56.10;;;;;;4986996;28;88045;-47
2022/05/18 02:42:58;;;;;;;;;;;21.30;56.10;;;;;;4986684;28;87995;-48
2022/05/18 02:45:24;;;;;;;;;;;21.30;56.20;;;;;;4986855;28;86829;-48
2022/05/18 02:47:50;;;;;;;;;;;21.30;56.10;;;;;;4986803;28;87919;-48
2022/05/18 02:50:16;;;;;;;;;;;21.30;56.10;;;;;;4986294;28;87658;-47
2022/05/18 02:52:42;;;;;;;;;;;21.20;56.10;;;;;;4989608;28;87030;-48
2022/05/18 02:57:54;;;;;;;;;;;21.20;56.20;;;;;;4986935;28;87907;-47
2022/05/18 03:00:19;;;;;;;;;;;21.20;56.20;;;;;;4986747;28;86998;-48
2022/05/18 03:02:45;;;;;;;;;;;21.20;56.10;;;;;;4985459;28;89723;-47
2022/05/18 03:05:11;;;;;;;;;;;21.20;56.20;;;;;;4986522;28;86902;-47
2022/05/18 03:07:37;;;;;;;;;;;21.20;56.30;;;;;;4986628;28;87070;-47
2022/05/18 03:10:03;;;;;;;;;;;21.10;56.20;;;;;;4986119;28;88680;-48
2022/05/18 03:12:29;;;;;;;;;;;21.10;56.20;;;;;;4986493;28;86850;-47
2022/05/18 03:14:55;;;;;;;;;;;21.10;56.30;;;;;;4989244;28;86896;-47
2022/05/18 03:17:20;;;;;;;;;;;21.00;56.40;;;;;;4986463;28;86905;-48
2022/05/18 03:19:46;;;;;;;;;;;21.00;56.40;;;;;;4986796;28;88023;-48
2022/05/18 03:24:56;;;;;;;;;;;21.00;56.40;;;;;;4986571;28;87020;-47
2022/05/18 03:27:22;;;;;;;;;;;21.00;56.40;;;;;;4985682;28;87830;-48
2022/05/18 03:29:48;;;;;;;;;;;21.00;56.40;;;;;;4985904;28;88321;-47
2022/05/18 03:32:14;;;;;;;;;;;20.90;56.40;;;;;;4986414;28;87077;-47
2022/05/18 03:34:40;;;;;;;;;;;20.90;56.40;;;;;;4986206;28;88322;-48
2022/05/18 03:37:06;;;;;;;;;;;20.90;56.40;;;;;;4988687;28;87609;-48
2022/05/18 03:39:32;;;;;;;;;;;20.90;56.50;;;;;;4986265;28;88093;-47
2022/05/18 03:41:57;;;;;;;;;;;20.90;56.50;;;;;;4986025;28;87517;-48
2022/05/18 03:44:23;;;;;;;;;;;20.90;56.50;;;;;;4986908;28;86132;-47
2022/05/18 03:46:49;;;;;;;;;;;20.80;56.40;;;;;;4986348;28;86840;-47
2022/05/18 03:49:15;;;;;;;;;;;20.80;56.60;;;;;;4985573;28;88687;-48
2022/05/18 03:51:40;;;;;;;;;;;20.80;56.50;;;;;;4985474;28;87832;-47
2022/05/18 03:54:06;;;;;;;;;;;20.80;56.60;;;;;;4986273;28;86829;-48
2022/05/18 03:56:32;;;;;;;;;;;20.80;56.50;;;;;;4985586;28;88570;-48
2022/05/18 03:58:59;;;;;;;;;;;20.80;56.60;;;;;;4988723;28;86727;-48
2022/05/18 04:01:26;;;;;;;;;;;20.80;56.50;;;;;;4985537;28;87768;-48
2022/05/18 04:03:52;;;;;;;;;;;20.80;56.60;;;;;;4985940;28;86848;-48
2022/05/18 04:06:18;;;;;;;;;;;20.80;56.70;;;;;;4985955;28;86900;-47
2022/05/18 04:08:44;;;;;;;;;;;20.70;56.70;;;;;;4985992;28;86838;-47
2022/05/18 04:11:11;;;;;;;;;;;20.70;56.70;;;;;;4985880;28;86873;-48
2022/05/18 04:13:36;;;;;;;;;;;20.70;56.70;;;;;;4985743;28;89975;-48
2022/05/18 04:16:02;;;;;;;;;;;20.70;56.70;;;;;;4984756;28;89536;-47
2022/05/18 04:18:29;;;;;;;;;;;20.60;56.70;;;;;;4988677;28;86837;-48
2022/05/18 04:20:55;;;;;;;;;;;20.70;56.80;;;;;;4985410;28;88539;-48
2022/05/18 04:23:23;;;;;;;;;;;20.70;56.80;;;;;;4985995;28;86987;-47
2022/05/18 04:25:48;;;;;;;;;;;20.60;56.80;;;;;;4985732;28;87973;-48
2022/05/18 04:28:14;;;;;;;;;;;20.60;56.90;;;;;;4985259;28;88663;-48
2022/05/18 04:30:43;;;;;;;;;;;20.60;56.80;;;;;;4984949;28;87194;-48
2022/05/18 04:33:13;;;;;;;;;;;20.60;56.80;;;;;;4986157;28;88028;-47
2022/05/18 04:35:39;;;;;;;;;;;20.60;56.90;;;;;;4988240;28;88586;-48
2022/05/18 04:38:04;;;;;;;;;;;20.60;57.00;;;;;;4988803;28;86867;-48
2022/05/18 04:40:30;;;;;;;;;;;20.50;56.90;;;;;;4990877;28;87843;-47
2022/05/18 04:42:56;;;;;;;;;;;20.60;57.00;;;;;;4988950;28;87104;-47
2022/05/18 04:45:22;;;;;;;;;;;20.50;56.90;;;;;;4988712;28;88060;-47
2022/05/18 04:47:49;;;;;;;;;;;20.50;57.00;;;;;;4988282;28;87992;-48
2022/05/18 04:50:15;;;;;;;;;;;20.50;56.90;;;;;;4988440;28;87146;-48
2022/05/18 04:52:41;;;;;;;;;;;20.50;56.90;;;;;;4988914;28;86853;-47
2022/05/18 04:55:07;;;;;;;;;;;20.50;57.00;;;;;;4988051;28;88409;-47
2022/05/18 04:57:33;;;;;;;;;;;20.50;57.10;;;;;;4988575;28;86392;-47
2022/05/18 04:59:58;;;;;;;;;;;20.50;57.10;;;;;;4988361;28;87051;-48
2022/05/18 05:02:24;;;;;;;;;;;20.40;57.10;;;;;;4990202;28;88596;-47
2022/05/18 05:04:49;;;;;;;;;;;20.40;57.20;;;;;;4987272;28;87914;-47
2022/05/18 05:07:15;;;;;;;;;;;20.40;57.20;;;;;;4987729;28;87393;-48
2022/05/18 05:09:41;;;;;;;;;;;20.40;57.20;;;;;;4987701;28;86834;-47
2022/05/18 05:12:08;;;;;;;;;;;20.40;57.30;;;;;;4987826;28;87074;-47
2022/05/18 05:14:36;;;;;;;;;;;20.40;57.20;;;;;;4987369;28;88024;-47
2022/05/18 05:17:02;;;;;;;;;;;20.40;57.20;;;;;;4987798;28;86773;-47
2022/05/18 05:19:28;;;;;;;;;;;20.40;57.30;;;;;;4987851;28;86936;-47
2022/05/18 05:21:53;;;;;;;;;;;20.40;57.30;;;;;;4987735;28;86860;-47
2022/05/18 05:24:19;;;;;;;;;;;20.30;57.20;;;;;;4990394;28;86817;-47
2022/05/18 05:26:44;;;;;;;;;;;20.30;57.30;;;;;;4986967;28;87903;-46
2022/05/18 05:29:11;;;;;;;;;;;20.30;57.20;;;;;;4986808;28;87792;-47
2022/05/18 05:31:37;;;;;;;;;;;20.40;57.30;;;;;;4987470;28;87915;-47
2022/05/18 05:34:03;;;;;;;;;;;20.30;57.30;;;;;;4986942;28;88580;-47
2022/05/18 05:36:28;;;;;;;;;;;20.30;57.30;;;;;;4987245;28;86835;-47
2022/05/18 05:38:54;;;;;;;;;;;20.30;57.30;;;;;;4987294;28;87392;-47
2022/05/18 05:41:19;;;;;;;;;;;20.20;57.30;;;;;;4987291;28;87452;-47
2022/05/18 05:43:45;;;;;;;;;;;20.30;57.40;;;;;;4987081;28;86900;-47
2022/05/18 05:46:13;;;;;;;;;;;20.30;57.30;;;;;;4990245;28;87352;-47
2022/05/18 05:48:40;;;;;;;;;;;20.20;57.40;;;;;;4986274;28;86846;-47
2022/05/18 05:51:05;;;;;;;;;;;20.30;57.50;;;;;;4967669;28;87082;-48
2022/05/18 05:53:32;;;;;;;;;;;20.20;57.40;;;;;;4966483;28;89902;-47
2022/05/18 05:55:58;;;;;;;;;;;20.20;57.40;;;;;;4967461;28;86865;-48
2022/05/18 05:58:25;;;;;;;;;;;20.20;57.40;;;;;;4967406;28;88027;-47
2022/05/18 06:00:51;;;;;;;;;;;20.20;57.40;;;;;;4966949;28;88866;-47
2022/05/18 06:03:18;;;;;;;;;;;20.20;57.50;;;;;;4967629;28;86786;-48
2022/05/18 06:05:43;;;;;;;;;;;20.20;57.40;;;;;;4969948;28;88099;-48
2022/05/18 06:08:09;;;;;;;;;;;20.20;57.50;;;;;;4967222;28;86732;-47
2022/05/18 06:10:35;;;;;;;;;;;20.10;57.50;;;;;;4967972;28;86792;-47
2022/05/18 06:13:07;;;;;;;;;;;20.10;57.60;;;;;;4966925;28;88381;-47
2022/05/18 06:15:33;;;;;;;;;;;20.10;57.60;;;;;;4967522;28;86881;-48
2022/05/18 06:17:58;;;;;;;;;;;20.10;57.70;;;;;;4966327;28;88241;-48
2022/05/18 06:20:24;;;;;;;;;;;20.10;57.70;;;;;;4967083;28;86923;-47
2022/05/18 06:22:50;;;;;;;;;;;20.10;57.60;;;;;;4967311;28;86833;-47
2022/05/18 06:25:15;;;;;;;;;;;20.10;57.70;;;;;;4967393;28;86945;-47
2022/05/18 06:27:41;;;;;;;;;;;20.10;57.70;;;;;;4969798;28;86890;-47
2022/05/18 06:30:11;;;;;;;;;;;20.10;57.70;;;;;;4967004;28;87903;-48
2022/05/18 06:32:37;;;;;;;;;;;20.00;57.70;;;;;;4966589;28;88816;-47
2022/05/18 06:35:03;;;;;;;;;;;20.00;57.70;;;;;;4967438;28;86476;-47
2022/05/18 06:37:28;;;;;;;;;;;20.00;57.60;;;;;;4966871;28;86997;-47
2022/05/18 06:39:54;;;;;;;;;;;20.10;57.80;;;;;;4966416;28;87725;-47
2022/05/18 06:42:19;;;;;;;;;;;20.00;57.80;;;;;;4966279;28;87949;-48
2022/05/18 06:44:45;;;;;;;;;;;20.00;57.90;;;;;;4966664;28;88003;-47
2022/05/18 06:47:12;;;;;;;;;;;20.00;57.80;;;;;;4966332;28;88533;-47
2022/05/18 06:49:38;;;;;;;;;;;20.00;57.90;;;;;;4969335;28;86983;-47
2022/05/18 06:52:04;;;;;;;;;;;20.00;57.90;;;;;;4966153;28;88468;-48
2022/05/18 06:54:29;;;;;;;;;;;20.00;58.00;;;;;;4966447;28;86869;-47
2022/05/18 06:56:55;;;;;;;;;;;19.90;57.90;;;;;;4965594;28;88246;-47
2022/05/18 06:59:20;;;;;;;;;;;19.90;58.00;;;;;;4966490;28;87063;-47
2022/05/18 07:01:46;;;;;;;;;;;19.90;57.90;;;;;;4965910;28;87118;-47
2022/05/18 07:04:12;;;;;;;;;;;19.90;58.00;;;;;;4966459;28;88063;-48
2022/05/18 07:06:40;;;;;;;;;;;19.90;58.00;;;;;;4965450;28;89314;-48
2022/05/18 07:09:07;;;;;;;;;;;19.90;58.00;;;;;;4966444;28;87116;-47
2022/05/18 07:11:36;;;;;;;;;;;19.90;58.10;;;;;;4969182;28;86857;-47
2022/05/18 07:14:03;;;;;;;;;;;19.90;58.10;;;;;;4965494;28;86925;-47
2022/05/18 07:16:29;;;;;;;;;;;19.90;58.10;;;;;;4966207;28;88139;-48
2022/05/18 07:18:55;;;;;;;;;;;19.80;58.10;;;;;;4965706;28;88568;-49
2022/05/18 07:21:21;;;;;;;;;;;19.90;58.10;;;;;;4966318;28;87104;-49
2022/05/18 07:23:47;;;;;;;;;;;19.80;58.20;;;;;;4966714;28;87014;-47
2022/05/18 07:26:13;;;;;;;;;;;19.80;58.20;;;;;;4965798;28;88655;-47
2022/05/18 07:28:40;;;;;;;;;;;19.80;58.20;;;;;;4965999;28;86858;-47
2022/05/18 07:31:06;;;;;;;;;;;19.80;58.30;;;;;;4965580;28;87837;-47
2022/05/18 07:33:32;;;;;;;;;;;19.80;58.30;;;;;;4968472;28;88531;-47
2022/05/18 07:35:57;;;;;;;;;;;19.80;58.30;;;;;;4966040;28;87922;-47
2022/05/18 07:38:24;;;;;;;;;;;19.80;58.20;;;;;;4965943;28;87598;-47
2022/05/18 07:40:50;;;;;;;;;;;19.80;58.20;;;;;;4966026;28;86898;-47
2022/05/18 07:43:19;;;;;;;;;;;19.80;58.30;;;;;;4965979;28;88091;-47
2022/05/18 07:45:48;;;;;;;;;;;19.80;58.20;;;;;;4965544;28;88687;-47
2022/05/18 07:48:15;;;;;;;;;;;19.70;58.40;;;;;;4966253;28;86114;-47
2022/05/18 07:50:40;;;;;;;;;;;19.70;58.40;;;;;;4965966;28;86958;-47
2022/05/18 07:53:06;;;;;;;;;;;19.70;58.40;;;;;;4965435;28;88484;-49
2022/05/18 07:55:32;;;;;;;;;;;19.70;58.40;;;;;;4968115;28;87800;-47
2022/05/18 07:57:57;;;;;;;;;;;19.70;58.30;;;;;;4965302;28;88308;-47
2022/05/18 08:00:23;;;;;;;;;;;19.70;58.30;;;;;;4965849;28;87222;-47
2022/05/18 08:02:50;;;;;;;;;;;19.70;58.30;;;;;;4965771;28;87923;-48
2022/05/18 08:05:15;;;;;;;;;;;19.70;58.30;;;;;;4965375;28;88551;-49
2022/05/18 08:07:45;;;;;;;;;;;19.70;58.40;;;;;;4966333;28;86884;-47
2022/05/18 08:15:43;;;;;;;;;;;19.70;58.50;;;;;;4969126;28;86833;-48
2022/05/18 08:18:09;;;;;;;;;;;19.70;58.50;;;;;;4968840;28;87379;-47
2022/05/18 08:20:37;;;;;;;;;;;19.60;58.60;;;;;;4968772;28;87725;-47
2022/05/18 08:23:03;;;;;;;;;;;19.60;58.60;;;;;;4969740;28;87987;-47
2022/05/18 08:25:29;;;;;;;;;;;19.60;58.60;;;;;;4969055;28;88427;-47
2022/05/18 08:27:54;;;;;;;;;;;19.60;58.50;;;;;;4969340;28;86880;-47
2022/05/18 08:30:21;;;;;;;;;;;19.60;58.60;;;;;;4969608;28;86891;-47
2022/05/18 08:32:46;;;;;;;;;;;19.60;58.60;;;;;;4969279;28;88008;-47
2022/05/18 08:35:14;;;;;;;;;;;19.60;58.50;;;;;;4969358;28;86966;-47
2022/05/18 08:37:44;;;;;;;;;;;19.60;58.50;;;;;;4972160;28;88247;-48
2022/05/18 08:40:13;;;;;;;;;;;19.60;58.50;;;;;;4969177;28;86858;-47
2022/05/18 08:42:39;;;;;;;;;;;19.60;58.60;;;;;;4969485;28;87399;-47
2022/05/18 08:45:06;;;;;;;;;;;19.60;58.60;;;;;;4968378;28;88492;-47
2022/05/18 08:47:42;;;;;;;;;;;19.60;58.60;;;;;;4969100;28;86877;-47
2022/05/18 08:50:13;;;;;;;;;;;19.60;58.70;;;;;;4968629;28;88104;-47
2022/05/18 08:52:51;;;;;;;;;;;19.60;58.70;;;;;;4968705;28;88396;-47
2022/05/18 08:55:36;;;;;;;;;;;19.60;58.70;;;;;;4968989;28;87008;-47
2022/05/18 08:58:02;;;;;;;;;;;19.60;58.70;;;;;;4968836;28;88036;-49
2022/05/18 09:00:34;;;;;;;;;;;19.60;58.60;;;;;;4971437;28;88592;-47
2022/05/18 09:03:05;;;;;;;;;;;19.60;58.70;;;;;;4969318;28;87298;-47
2022/05/18 09:05:38;;;;;;;;;;;19.60;58.50;;;;;;4968725;28;86950;-47
2022/05/18 09:08:09;;;;;;;;;;;19.60;58.60;;;;;;4968797;28;87041;-47
2022/05/18 09:11:04;;;;;;;;;;;19.60;58.70;;;;;;4968224;28;87923;-47
2022/05/18 09:13:30;;;;;;;;;;;19.60;58.70;;;;;;4954650;28;88684;-47
2022/05/18 09:15:59;;;;;;;;;;;19.60;58.80;;;;;;4968673;28;86836;-47
2022/05/18 09:18:37;;;;;;;;;;;19.60;58.80;;;;;;4968884;28;87076;-47
2022/05/18 09:21:03;;;;;;;;;;;19.60;58.80;;;;;;4967542;28;88510;-47
2022/05/18 09:23:47;;;;;;;;;;;19.60;58.80;;;;;;4971387;28;86978;-47
2022/05/18 09:26:25;;;;;;;;;;;19.60;58.90;;;;;;4968406;28;87513;-47
2022/05/18 09:29:09;;;;;;;;;;;19.60;58.70;;;;;;4969054;28;86084;-47
2022/05/18 09:31:35;;;;;;;;;;;19.60;58.70;;;;;;4968766;28;86837;-47
2022/05/18 09:34:19;;;;;;;;;;;19.60;58.70;;;;;;4968027;28;88550;-47
2022/05/18 09:36:45;;;;;;;;;;;19.60;58.60;;;;;;4967683;28;87718;-47
2022/05/18 09:39:13;;;;;;;;;;;19.70;58.80;;;;;;4968458;28;86885;-47
2022/05/18 09:41:52;;;;;;;;;;;19.60;58.70;;;;;;4967966;28;87748;-47
2022/05/18 09:44:20;;;;;;;;;;;19.70;58.70;;;;;;4968598;28;86784;-47
2022/05/18 09:46:48;;;;;;;;;;;19.70;58.70;;;;;;4970171;28;86917;-47
2022/05/18 09:49:26;;;;;;;;;;;19.70;58.80;;;;;;4968111;28;86869;-47
2022/05/18 09:51:52;;;;;;;;;;;19.70;58.80;;;;;;4968107;28;88161;-47
2022/05/18 09:54:18;;;;;;;;;;;19.70;58.80;;;;;;4968570;28;87283;-47
2022/05/18 09:56:51;;;;;;;;;;;19.70;58.90;;;;;;4967940;28;87098;-47
2022/05/18 09:59:20;;;;;;;;;;;19.70;58.90;;;;;;4968179;28;87145;-47
2022/05/18 10:07:32;;;;;;;;;;;19.60;58.90;;;;;;4968192;28;86808;-50
2022/05/18 10:10:12;;;;;;;;;;;19.60;58.80;;;;;;4970358;28;88770;-47
2022/05/18 10:12:39;;;;;;;;;;;19.60;59.00;;;;;;4967821;28;87300;-47
2022/05/18 10:15:09;;;;;;;;;;;19.60;59.00;;;;;;4967446;28;88548;-50
2022/05/18 10:17:44;;;;;;;;;;;19.60;59.00;;;;;;4967629;28;86899;-47
2022/05/18 10:20:19;;;;;;;;;;;19.60;59.10;;;;;;4968160;28;87937;-47
2022/05/18 10:22:46;;;;;;;;;;;19.60;59.00;;;;;;4967359;28;88597;-48
2022/05/18 10:25:14;;;;;;;;;;;19.70;58.90;;;;;;4967670;28;86901;-47
2022/05/18 10:27:41;;;;;;;;;;;19.70;59.00;;;;;;4966964;28;87795;-51
2022/05/18 10:30:15;;;;;;;;;;;19.70;58.90;;;;;;4970024;28;88567;-47
2022/05/18 10:33:01;;;;;;;;;;;19.70;58.90;;;;;;4966314;28;86954;-47
2022/05/18 10:35:41;;;;;;;;;;;19.70;58.90;;;;;;4967176;28;87675;-47
2022/05/18 10:38:27;;;;;;;;;;;19.70;59.00;;;;;;4967447;28;86880;-47
2022/05/18 10:40:55;;;;;;;;;;;19.70;59.00;;;;;;4967545;28;88029;-49
2022/05/18 10:43:29;;;;;;;;;;;19.70;58.90;;;;;;4967218;28;86876;-49
2022/05/18 10:45:57;;;;;;;;;;;19.70;59.00;;;;;;4967856;28;86058;-49
2022/05/18 10:48:23;;;;;;;;;;;19.70;59.00;;;;;;4967247;28;87377;-49
2022/05/18 10:50:58;;;;;;;;;;;19.70;59.00;;;;;;4966781;28;88733;-46
2022/05/18 10:53:32;;;;;;;;;;;19.70;59.10;;;;;;4969743;28;87832;-49
2022/05/18 10:56:00;;;;;;;;;;;19.60;59.10;;;;;;4966809;28;88525;-49
2022/05/18 10:58:30;;;;;;;;;;;19.60;59.10;;;;;;4966892;28;86893;-48
2022/05/18 11:01:02;;;;;;;;;;;19.70;59.10;;;;;;4967451;28;87033;-49
2022/05/18 11:03:45;;;;;;;;;;;19.70;59.10;;;;;;4966663;28;88495;-48
2022/05/18 11:06:13;;;;;;;;;;;19.70;59.10;;;;;;4967332;28;86892;-48
2022/05/18 11:08:39;;;;;;;;;;;19.60;59.10;;;;;;4967055;28;87923;-48
2022/05/18 11:11:12;;;;;;;;;;;19.60;59.10;;;;;;4967144;28;87745;-48
2022/05/18 11:13:46;;;;;;;;;;;19.60;59.10;;;;;;4966873;28;86812;-48
2022/05/18 11:16:21;;;;;;;;;;;19.60;59.10;;;;;;4969434;28;87041;-48
2022/05/18 11:18:47;;;;;;;;;;;19.60;59.10;;;;;;4966259;28;87870;-48
2022/05/18 11:21:32;;;;;;;;;;;19.60;59.10;;;;;;4966820;28;88805;-48
2022/05/18 11:24:17;;;;;;;;;;;19.70;59.70;;;;;;4966390;28;88560;-48
2022/05/18 11:26:46;;;;;;;;;;;19.60;59.20;;;;;;4966804;28;86919;-48
2022/05/18 11:29:30;;;;;;;;;;;19.60;59.20;;;;;;4966790;28;88104;-48
2022/05/18 11:32:15;;;;;;;;;;;19.60;59.20;;;;;;4966541;28;87562;-48
2022/05/18 11:35:01;;;;;;;;;;;19.60;59.30;;;;;;4966927;28;87149;-48
2022/05/18 11:37:36;;;;;;;;;;;19.60;59.30;;;;;;4967003;28;88138;-49
2022/05/18 11:40:21;;;;;;;;;;;19.60;59.40;;;;;;4969525;28;87576;-49
2022/05/18 11:42:54;;;;;;;;;;;19.50;59.30;;;;;;4967015;28;88056;-48
2022/05/18 11:45:36;;;;;;;;;;;19.50;59.30;;;;;;4969120;28;89754;-49
2022/05/18 11:48:07;;;;;;;;;;;19.50;59.30;;;;;;4970078;28;86876;-50
2022/05/18 11:50:42;;;;;;;;;;;19.50;59.30;;;;;;4969733;28;88155;-48
2022/05/18 11:53:21;;;;;;;;;;;19.50;59.30;;;;;;4969563;28;88590;-48
2022/05/18 11:55:47;;;;;;;;;;;19.50;59.20;;;;;;4970193;28;86888;-48
2022/05/18 11:58:24;;;;;;;;;;;19.50;59.20;;;;;;4969808;28;88000;-48
2022/05/18 12:01:08;;;;;;;;;;;19.50;59.20;;;;;;4969427;28;88618;-48
2022/05/18 12:03:52;;;;;;;;;;;19.50;59.30;;;;;;4973278;28;86608;-48
2022/05/18 12:06:47;;;;;;;;;;;19.50;59.30;;;;;;4969402;28;87399;-48
2022/05/18 12:09:20;;;;;;;;;;;19.50;59.30;;;;;;4970038;28;86881;-48
2022/05/18 12:12:04;;;;;;;;;;;19.50;59.40;;;;;;4969139;28;87779;-48
2022/05/18 12:14:29;;;;;;;;;;;19.40;59.30;;;;;;4969254;28;88620;-48
2022/05/18 12:16:55;;;;;;;;;;;19.40;59.20;;;;;;4969805;28;86875;-48
2022/05/18 12:19:22;;;;;;;;;;;19.40;59.30;;;;;;4969933;28;86824;-48
2022/05/18 12:22:08;;;;;;;;;;;19.40;59.20;;;;;;4968192;28;86899;-48
2022/05/18 12:24:34;;;;;;;;;;;19.40;59.20;;;;;;4968851;28;86912;-48
2022/05/18 12:27:00;;;;;;;;;;;19.40;59.20;;;;;;4972250;28;87138;-48
2022/05/18 12:29:26;;;;;;;;;;;19.40;59.30;;;;;;4969948;28;86197;-48
2022/05/18 12:31:54;;;;;;;;;;;19.40;59.30;;;;;;4969377;28;87580;-48
2022/05/18 12:34:46;;;;;;;;;;;19.40;59.30;;;;;;4969179;28;87470;-48
2022/05/18 12:37:14;;;;;;;;;;;19.30;59.20;;;;;;4965723;28;87951;-48
2022/05/18 12:39:43;;;;;;;;;;;19.30;59.20;;;;;;4969175;28;88808;-48
2022/05/18 12:42:10;;;;;;;;;;;19.30;59.20;;;;;;4968823;28;88606;-48
2022/05/18 12:44:40;;;;;;;;;;;19.30;59.10;;;;;;4969112;28;87058;-48
2022/05/18 12:47:24;;;;;;;;;;;19.30;59.20;;;;;;4971684;28;88162;-48
2022/05/18 12:50:10;;;;;;;;;;;19.30;59.20;;;;;;4968373;28;86982;-48
2022/05/18 12:52:44;;;;;;;;;;;19.30;59.20;;;;;;4958045;28;87079;-48
2022/05/18 12:55:30;;;;;;;;;;;19.30;59.20;;;;;;4968038;28;86997;-48
2022/05/18 12:58:11;;;;;;;;;;;19.30;59.20;;;;;;4968813;28;87078;-48
2022/05/18 13:00:50;;;;;;;;;;;19.20;59.20;;;;;;4968944;28;87768;-48
2022/05/18 13:03:16;;;;;;;;;;;19.20;59.20;;;;;;4967879;28;89258;-48
2022/05/18 13:05:43;;;;;;;;;;;19.20;59.30;;;;;;4969282;28;86880;-48
2022/05/18 13:08:11;;;;;;;;;;;19.20;59.20;;;;;;4969001;28;86944;-48
2022/05/18 13:10:38;;;;;;;;;;;19.20;59.20;;;;;;4971197;28;87852;-48
2022/05/18 13:13:10;;;;;;;;;;;19.20;59.10;;;;;;4968986;28;86848;-49
2022/05/18 13:15:53;;;;;;;;;;;19.20;59.30;;;;;;4968512;28;87326;-48
2022/05/18 13:18:20;;;;;;;;;;;19.30;59.00;;;;;;4968542;28;86976;-48
2022/05/18 13:20:56;;;;;;;;;;;19.30;58.90;;;;;;4969152;28;87901;-48
2022/05/18 13:23:23;;;;;;;;;;;19.30;59.00;;;;;;4968172;28;87626;-48
2022/05/18 13:25:51;;;;;;;;;;;19.30;58.90;;;;;;4968508;28;86840;-48
2022/05/18 13:28:18;;;;;;;;;;;19.20;58.80;;;;;;4968242;28;88071;-48
2022/05/18 13:30:47;;;;;;;;;;;19.20;58.80;;;;;;4968423;28;86850;-48
2022/05/18 13:33:14;;;;;;;;;;;19.20;58.80;;;;;;4971403;28;86882;-48
2022/05/18 13:35:39;;;;;;;;;;;19.20;58.80;;;;;;4968368;28;87220;-48
2022/05/18 13:38:12;;;;;;;;;;;19.30;58.70;;;;;;4968345;28;87029;-48
2022/05/18 13:40:44;;;;;;;;;;;19.30;58.60;;;;;;4968336;28;88210;-48
2022/05/18 13:43:11;;;;;;;;;;;19.20;58.60;;;;;;4967854;28;88507;-48
2022/05/18 13:45:38;;;;;;;;;;;19.20;58.60;;;;;;4968797;28;86012;-48
2022/05/18 13:48:11;;;;;;;;;;;19.20;58.60;;;;;;4968241;28;86905;-48
2022/05/18 13:50:40;;;;;;;;;;;19.20;58.60;;;;;;4967580;28;88429;-48
2022/05/18 13:53:14;;;;;;;;;;;19.20;58.60;;;;;;4967466;28;87808;-48
2022/05/18 13:55:42;;;;;;;;;;;19.20;58.50;;;;;;4970810;28;87851;-48
2022/05/18 13:58:08;;;;;;;;;;;19.20;58.60;;;;;;4967982;28;86900;-48
2022/05/18 14:00:37;;;;;;;;;;;19.20;58.50;;;;;;4968061;28;87863;-48
2022/05/18 14:03:03;;;;;;;;;;;19.20;58.50;;;;;;4967604;28;87598;-49
2022/05/18 14:05:31;;;;;;;;;;;19.20;58.50;;;;;;4967835;28;86891;-48
2022/05/18 14:07:57;;;;;;;;;;;19.20;58.50;;;;;;4967951;28;87079;-48
2022/05/18 14:10:25;;;;;;;;;;;19.20;58.60;;;;;;4967626;28;88008;-48
2022/05/18 14:12:54;;;;;;;;;;;19.20;58.50;;;;;;4967315;28;86978;-49
2022/05/18 14:15:20;;;;;;;;;;;19.20;58.40;;;;;;4967535;28;86940;-46
2022/05/18 14:17:46;;;;;;;;;;;19.30;58.20;;;;;;4969041;28;89363;-50
2022/05/18 14:20:18;;;;;;;;;;;19.30;58.20;;;;;;4967104;28;89029;-46
2022/05/18 14:22:47;;;;;;;;;;;19.30;58.10;;;;;;4967008;28;86871;-49
2022/05/18 14:25:15;;;;;;;;;;;19.30;58.20;;;;;;4967221;28;86896;-49
2022/05/18 14:27:42;;;;;;;;;;;19.30;58.10;;;;;;4967017;28;87822;-50
2022/05/18 14:30:16;;;;;;;;;;;19.20;58.00;;;;;;4966565;28;88587;-48
2022/05/18 14:32:52;;;;;;;;;;;19.20;58.00;;;;;;4966794;28;86899;-48
2022/05/18 14:35:20;;;;;;;;;;;19.10;58.10;;;;;;4967346;28;87925;-49
2022/05/18 14:37:49;;;;;;;;;;;19.20;58.10;;;;;;4966466;28;88312;-48
2022/05/18 14:40:17;;;;;;;;;;;19.10;58.10;;;;;;4969712;28;87084;-49
2022/05/18 14:42:46;;;;;;;;;;;19.10;58.00;;;;;;4965805;28;89469;-48